Terminal Aerodrome Forecast
Issued by NWS

Home | Current Version | Previous Version | Graphics & Text | Print | Product List | Glossary On
Versions: 1 2 3 4 5 6 7 8 9 10 11 12 13 14 15
000
FTUS43 KBIS 290529
TAFDIK
TAF
KDIK 290529Z 2906/3006 26006KT 5SM FU SCT040
      TEMPO 2906/2909 3SM FU BKN030
     FM290900 22005KT 4SM FU SCT030
      TEMPO 2909/2913 2SM FU BKN030
     FM291500 20009KT 5SM FU FEW250
     FM291800 18015G21KT P6SM FEW250
     FM300300 15008KT P6SM SCT250=

USA.gov is the U.S. government's official web portal to all federal, state and local government web resources and services.